sensor_id;sensor_type;location;lat;lon;timestamp;pressure;altitude;pressure_sealevel;temperature;humidity
39613;BME280;25303;48.896;13.342;2022-10-16T00:02:24;92945.78;;;14.15;82.92
39613;BME280;25303;48.896;13.342;2022-10-16T00:05:07;92950.16;;;14.14;83.04
39613;BME280;25303;48.896;13.342;2022-10-16T00:07:50;92946.75;;;14.13;83.11
39613;BME280;25303;48.896;13.342;2022-10-16T00:10:35;92955.16;;;14.16;82.89
39613;BME280;25303;48.896;13.342;2022-10-16T00:13:18;92948.03;;;14.18;82.81
39613;BME280;25303;48.896;13.342;2022-10-16T00:16:03;92949.63;;;14.19;82.65
39613;BME280;25303;48.896;13.342;2022-10-16T00:18:46;92946.50;;;14.23;82.68
39613;BME280;25303;48.896;13.342;2022-10-16T00:21:32;92953.00;;;14.19;82.83
39613;BME280;25303;48.896;13.342;2022-10-16T00:24:15;92946.16;;;14.26;82.39
39613;BME280;25303;48.896;13.342;2022-10-16T00:27:00;92951.34;;;14.26;82.21
39613;BME280;25303;48.896;13.342;2022-10-16T00:29:43;92957.31;;;14.27;82.13
39613;BME280;25303;48.896;13.342;2022-10-16T00:32:26;92964.63;;;14.23;82.21
39613;BME280;25303;48.896;13.342;2022-10-16T00:35:09;92958.47;;;14.24;82.20
39613;BME280;25303;48.896;13.342;2022-10-16T00:37:52;92960.09;;;14.25;82.19
39613;BME280;25303;48.896;13.342;2022-10-16T00:40:35;92965.91;;;14.27;82.24
39613;BME280;25303;48.896;13.342;2022-10-16T00:43:36;92961.34;;;14.30;81.94
39613;BME280;25303;48.896;13.342;2022-10-16T00:46:21;92965.56;;;14.31;82.17
39613;BME280;25303;48.896;13.342;2022-10-16T00:49:06;92967.31;;;14.30;81.97
39613;BME280;25303;48.896;13.342;2022-10-16T00:51:52;92973.47;;;14.29;82.01
39613;BME280;25303;48.896;13.342;2022-10-16T00:54:36;92969.13;;;14.30;82.06
39613;BME280;25303;48.896;13.342;2022-10-16T00:57:19;92976.88;;;14.30;81.69
39613;BME280;25303;48.896;13.342;2022-10-16T01:00:06;92982.06;;;14.30;81.88
39613;BME280;25303;48.896;13.342;2022-10-16T01:02:52;92978.84;;;14.27;81.77
39613;BME280;25303;48.896;13.342;2022-10-16T01:05:41;92977.41;;;14.25;81.83
39613;BME280;25303;48.896;13.342;2022-10-16T01:08:32;92973.03;;;14.25;81.88
39613;BME280;25303;48.896;13.342;2022-10-16T01:11:22;92972.22;;;14.25;82.10
39613;BME280;25303;48.896;13.342;2022-10-16T01:14:14;92968.66;;;14.26;81.65
39613;BME280;25303;48.896;13.342;2022-10-16T01:17:04;92963.66;;;14.24;81.66
39613;BME280;25303;48.896;13.342;2022-10-16T01:20:08;92964.44;;;14.10;82.68
39613;BME280;25303;48.896;13.342;2022-10-16T01:23:09;92967.38;;;14.07;82.57
39613;BME280;25303;48.896;13.342;2022-10-16T01:29:09;92973.53;;;14.06;82.84
39613;BME280;25303;48.896;13.342;2022-10-16T01:31:59;92984.84;;;14.05;82.55
39613;BME280;25303;48.896;13.342;2022-10-16T01:34:47;92978.88;;;14.04;82.75
39613;BME280;25303;48.896;13.342;2022-10-16T01:37:35;92976.47;;;14.03;82.32
39613;BME280;25303;48.896;13.342;2022-10-16T01:40:24;92972.59;;;13.98;82.34
39613;BME280;25303;48.896;13.342;2022-10-16T01:43:12;92973.75;;;13.96;82.38
39613;BME280;25303;48.896;13.342;2022-10-16T01:46:00;92971.50;;;13.93;82.55
39613;BME280;25303;48.896;13.342;2022-10-16T01:48:44;92973.47;;;13.91;82.51
39613;BME280;25303;48.896;13.342;2022-10-16T01:51:28;92974.63;;;13.88;82.37
39613;BME280;25303;48.896;13.342;2022-10-16T01:54:12;92974.19;;;13.85;82.02
39613;BME280;25303;48.896;13.342;2022-10-16T01:56:57;92979.34;;;13.85;82.18
39613;BME280;25303;48.896;13.342;2022-10-16T01:59:44;92977.09;;;13.81;82.49
39613;BME280;25303;48.896;13.342;2022-10-16T02:02:30;92976.47;;;13.79;82.16
39613;BME280;25303;48.896;13.342;2022-10-16T02:05:18;92985.22;;;13.78;82.32
39613;BME280;25303;48.896;13.342;2022-10-16T02:08:03;92983.59;;;13.77;82.34
39613;BME280;25303;48.896;13.342;2022-10-16T02:10:46;92988.97;;;13.76;82.18
39613;BME280;25303;48.896;13.342;2022-10-16T02:13:32;92986.53;;;13.74;82.11
39613;BME280;25303;48.896;13.342;2022-10-16T02:16:15;92977.97;;;13.74;82.14
39613;BME280;25303;48.896;13.342;2022-10-16T02:19:00;92988.31;;;13.74;82.11
39613;BME280;25303;48.896;13.342;2022-10-16T02:21:49;92988.50;;;13.72;82.29
39613;BME280;25303;48.896;13.342;2022-10-16T02:24:35;92986.72;;;13.73;82.30
39613;BME280;25303;48.896;13.342;2022-10-16T02:27:26;92988.03;;;13.68;82.19
39613;BME280;25303;48.896;13.342;2022-10-16T02:30:17;92990.59;;;13.68;82.04
39613;BME280;25303;48.896;13.342;2022-10-16T02:33:03;92992.75;;;13.65;81.81
39613;BME280;25303;48.896;13.342;2022-10-16T02:35:50;93001.19;;;13.59;82.04
39613;BME280;25303;48.896;13.342;2022-10-16T02:38:34;92993.41;;;13.59;82.03
39613;BME280;25303;48.896;13.342;2022-10-16T02:41:18;92988.88;;;13.61;82.34
39613;BME280;25303;48.896;13.342;2022-10-16T02:44:01;92997.47;;;13.61;82.31
39613;BME280;25303;48.896;13.342;2022-10-16T02:46:44;92996.50;;;13.62;82.20
39613;BME280;25303;48.896;13.342;2022-10-16T02:49:27;92995.34;;;13.65;82.22
39613;BME280;25303;48.896;13.342;2022-10-16T02:52:11;92992.56;;;13.66;82.13
39613;BME280;25303;48.896;13.342;2022-10-16T02:54:54;92989.19;;;13.66;82.36
39613;BME280;25303;48.896;13.342;2022-10-16T02:57:37;92999.72;;;13.64;82.11
39613;BME280;25303;48.896;13.342;2022-10-16T03:00:22;93006.66;;;13.64;82.12
39613;BME280;25303;48.896;13.342;2022-10-16T03:03:04;93004.06;;;13.64;82.09
39613;BME280;25303;48.896;13.342;2022-10-16T03:05:47;93010.84;;;13.65;81.98
39613;BME280;25303;48.896;13.342;2022-10-16T03:08:31;93011.03;;;13.63;82.04
39613;BME280;25303;48.896;13.342;2022-10-16T03:11:14;93012.34;;;13.59;81.95
39613;BME280;25303;48.896;13.342;2022-10-16T03:13:57;93009.91;;;13.58;81.96
39613;BME280;25303;48.896;13.342;2022-10-16T03:16:40;93015.28;;;13.56;82.20
39613;BME280;25303;48.896;13.342;2022-10-16T03:19:24;93019.66;;;13.56;81.97
39613;BME280;25303;48.896;13.342;2022-10-16T03:22:07;93011.38;;;13.60;81.78
39613;BME280;25303;48.896;13.342;2022-10-16T03:24:51;93007.63;;;13.63;81.39
39613;BME280;25303;48.896;13.342;2022-10-16T03:27:34;93011.84;;;13.64;81.46
39613;BME280;25303;48.896;13.342;2022-10-16T03:30:17;93015.56;;;13.61;81.60
39613;BME280;25303;48.896;13.342;2022-10-16T03:33:00;93008.44;;;13.63;81.39
39613;BME280;25303;48.896;13.342;2022-10-16T03:35:50;93006.47;;;13.65;81.20
39613;BME280;25303;48.896;13.342;2022-10-16T03:38:34;93009.53;;;13.69;81.18
39613;BME280;25303;48.896;13.342;2022-10-16T03:41:18;93015.34;;;13.71;81.02
39613;BME280;25303;48.896;13.342;2022-10-16T03:44:01;93015.16;;;13.73;81.03
39613;BME280;25303;48.896;13.342;2022-10-16T03:46:43;93016.78;;;13.74;80.91
39613;BME280;25303;48.896;13.342;2022-10-16T03:49:26;93011.44;;;13.75;80.91
39613;BME280;25303;48.896;13.342;2022-10-16T03:52:09;93021.66;;;13.68;81.14
39613;BME280;25303;48.896;13.342;2022-10-16T03:54:52;93026.34;;;13.73;80.98
39613;BME280;25303;48.896;13.342;2022-10-16T03:57:36;93025.53;;;13.73;80.84
39613;BME280;25303;48.896;13.342;2022-10-16T04:00:19;93023.75;;;13.73;81.12
39613;BME280;25303;48.896;13.342;2022-10-16T04:03:02;93023.38;;;13.76;80.92
39613;BME280;25303;48.896;13.342;2022-10-16T04:05:45;93028.75;;;13.75;80.57
39613;BME280;25303;48.896;13.342;2022-10-16T04:08:28;93016.31;;;13.70;80.73
39613;BME280;25303;48.896;13.342;2022-10-16T04:11:11;93024.09;;;13.70;80.59
39613;BME280;25303;48.896;13.342;2022-10-16T04:13:55;93038.16;;;13.67;80.47
39613;BME280;25303;48.896;13.342;2022-10-16T04:16:38;93043.50;;;13.66;80.50
39613;BME280;25303;48.896;13.342;2022-10-16T04:19:21;93043.84;;;13.63;80.32
39613;BME280;25303;48.896;13.342;2022-10-16T04:22:03;93041.59;;;13.60;80.24
39613;BME280;25303;48.896;13.342;2022-10-16T04:24:46;93040.94;;;13.58;80.39
39613;BME280;25303;48.896;13.342;2022-10-16T04:27:29;93043.84;;;13.63;80.04
39613;BME280;25303;48.896;13.342;2022-10-16T04:30:14;93048.22;;;13.62;80.16
39613;BME280;25303;48.896;13.342;2022-10-16T04:32:57;93045.47;;;13.64;80.08
39613;BME280;25303;48.896;13.342;2022-10-16T04:35:43;93045.97;;;13.59;79.98
39613;BME280;25303;48.896;13.342;2022-10-16T04:38:26;93047.75;;;13.59;79.92
39613;BME280;25303;48.896;13.342;2022-10-16T04:41:09;93049.34;;;13.60;79.79
39613;BME280;25303;48.896;13.342;2022-10-16T04:43:52;93052.13;;;13.58;79.78
39613;BME280;25303;48.896;13.342;2022-10-16T04:46:36;93043.53;;;13.58;79.92
39613;BME280;25303;48.896;13.342;2022-10-16T04:49:19;93052.13;;;13.58;79.99
39613;BME280;25303;48.896;13.342;2022-10-16T04:52:02;93050.50;;;13.57;79.68
39613;BME280;25303;48.896;13.342;2022-10-16T04:54:45;93060.06;;;13.57;79.41
39613;BME280;25303;48.896;13.342;2022-10-16T04:57:29;93059.56;;;13.53;79.23
39613;BME280;25303;48.896;13.342;2022-10-16T05:00:12;93060.72;;;13.50;79.26
39613;BME280;25303;48.896;13.342;2022-10-16T05:02:56;93058.81;;;13.44;79.14
39613;BME280;25303;48.896;13.342;2022-10-16T05:05:43;93055.91;;;13.39;79.24
39613;BME280;25303;48.896;13.342;2022-10-16T05:08:26;93056.25;;;13.36;79.40
39613;BME280;25303;48.896;13.342;2022-10-16T05:11:09;93054.78;;;13.33;79.20
39613;BME280;25303;48.896;13.342;2022-10-16T05:13:52;93061.28;;;13.29;79.30
39613;BME280;25303;48.896;13.342;2022-10-16T05:16:36;93062.06;;;13.30;79.23
39613;BME280;25303;48.896;13.342;2022-10-16T05:19:20;93068.22;;;13.29;79.41
39613;BME280;25303;48.896;13.342;2022-10-16T05:22:08;93065.00;;;13.27;79.55
39613;BME280;25303;48.896;13.342;2022-10-16T05:24:51;93064.19;;;13.26;79.57
39613;BME280;25303;48.896;13.342;2022-10-16T05:27:34;93067.94;;;13.24;79.75
39613;BME280;25303;48.896;13.342;2022-10-16T05:30:18;93082.44;;;13.25;79.84
39613;BME280;25303;48.896;13.342;2022-10-16T05:33:01;93091.03;;;13.25;79.82
39613;BME280;25303;48.896;13.342;2022-10-16T05:35:45;93084.75;;;13.19;79.73
39613;BME280;25303;48.896;13.342;2022-10-16T05:38:29;93093.63;;;13.17;79.58
39613;BME280;25303;48.896;13.342;2022-10-16T05:41:11;93095.72;;;13.13;79.52
39613;BME280;25303;48.896;13.342;2022-10-16T05:43:54;93101.22;;;13.10;79.40
39613;BME280;25303;48.896;13.342;2022-10-16T05:46:37;93102.19;;;13.09;79.68
39613;BME280;25303;48.896;13.342;2022-10-16T05:49:20;93102.06;;;13.11;79.68
39613;BME280;25303;48.896;13.342;2022-10-16T05:52:04;93104.00;;;13.09;79.60
39613;BME280;25303;48.896;13.342;2022-10-16T05:54:47;93113.38;;;13.10;79.61
39613;BME280;25303;48.896;13.342;2022-10-16T05:57:31;93108.00;;;13.11;79.84
39613;BME280;25303;48.896;13.342;2022-10-16T06:00:14;93106.25;;;13.12;79.84
39613;BME280;25303;48.896;13.342;2022-10-16T06:02:57;93104.31;;;13.14;80.11
39613;BME280;25303;48.896;13.342;2022-10-16T06:05:39;93114.28;;;13.17;80.15
39613;BME280;25303;48.896;13.342;2022-10-16T06:08:25;93117.38;;;13.20;80.14
39613;BME280;25303;48.896;13.342;2022-10-16T06:11:12;93116.41;;;13.21;80.30
39613;BME280;25303;48.896;13.342;2022-10-16T06:13:58;93127.22;;;13.25;80.06
39613;BME280;25303;48.896;13.342;2022-10-16T06:16:43;93131.72;;;13.31;80.24
39613;BME280;25303;48.896;13.342;2022-10-16T06:19:25;93133.81;;;13.36;80.33
39613;BME280;25303;48.896;13.342;2022-10-16T06:22:08;93138.34;;;13.42;80.26
39613;BME280;25303;48.896;13.342;2022-10-16T06:24:53;93138.66;;;13.47;80.22
39613;BME280;25303;48.896;13.342;2022-10-16T06:27:36;93142.97;;;13.63;79.72
39613;BME280;25303;48.896;13.342;2022-10-16T06:30:18;93130.31;;;13.20;81.49
39613;BME280;25303;48.896;13.342;2022-10-16T06:33:01;93136.44;;;13.11;82.17
39613;BME280;25303;48.896;13.342;2022-10-16T06:35:44;93144.53;;;13.08;82.45
39613;BME280;25303;48.896;13.342;2022-10-16T06:38:27;93148.13;;;13.07;82.57
39613;BME280;25303;48.896;13.342;2022-10-16T06:41:13;93146.63;;;13.04;82.44
39613;BME280;25303;48.896;13.342;2022-10-16T06:43:56;93154.41;;;13.04;82.59
39613;BME280;25303;48.896;13.342;2022-10-16T06:46:39;93152.78;;;13.03;82.80
39613;BME280;25303;48.896;13.342;2022-10-16T06:49:22;93162.00;;;13.06;82.78
39613;BME280;25303;48.896;13.342;2022-10-16T06:52:05;93161.66;;;13.09;82.89
39613;BME280;25303;48.896;13.342;2022-10-16T06:54:49;93164.09;;;13.11;83.25
39613;BME280;25303;48.896;13.342;2022-10-16T06:57:33;93152.59;;;13.13;83.03
39613;BME280;25303;48.896;13.342;2022-10-16T07:00:16;93142.72;;;13.17;83.47
39613;BME280;25303;48.896;13.342;2022-10-16T07:02:59;93139.81;;;13.20;83.54
39613;BME280;25303;48.896;13.342;2022-10-16T07:05:42;93147.25;;;13.23;83.61
39613;BME280;25303;48.896;13.342;2022-10-16T07:08:25;93158.06;;;13.27;83.52
39613;BME280;25303;48.896;13.342;2022-10-16T07:11:10;93155.78;;;13.32;83.74
39613;BME280;25303;48.896;13.342;2022-10-16T07:13:55;93165.63;;;13.36;83.81
39613;BME280;25303;48.896;13.342;2022-10-16T07:16:38;93166.00;;;13.42;83.94
39613;BME280;25303;48.896;13.342;2022-10-16T07:19:21;93173.25;;;13.46;83.87
39613;BME280;25303;48.896;13.342;2022-10-16T07:22:04;93176.28;;;13.50;83.82
39613;BME280;25303;48.896;13.342;2022-10-16T07:24:47;93181.13;;;13.53;83.90
39613;BME280;25303;48.896;13.342;2022-10-16T07:27:33;93177.25;;;13.57;83.96
39613;BME280;25303;48.896;13.342;2022-10-16T07:30:22;93184.34;;;13.63;83.90
39613;BME280;25303;48.896;13.342;2022-10-16T07:33:05;93190.00;;;13.67;84.16
39613;BME280;25303;48.896;13.342;2022-10-16T07:35:49;93194.66;;;13.72;84.03
39613;BME280;25303;48.896;13.342;2022-10-16T07:38:33;93202.09;;;13.75;84.10
39613;BME280;25303;48.896;13.342;2022-10-16T07:41:18;93216.16;;;13.80;84.00
39613;BME280;25303;48.896;13.342;2022-10-16T07:44:01;93213.88;;;13.86;84.45
39613;BME280;25303;48.896;13.342;2022-10-16T07:46:46;93209.75;;;14.00;84.52
39613;BME280;25303;48.896;13.342;2022-10-16T07:49:28;93206.63;;;14.12;85.09
39613;BME280;25303;48.896;13.342;2022-10-16T07:52:11;93207.41;;;14.21;84.32
39613;BME280;25303;48.896;13.342;2022-10-16T07:54:54;93207.38;;;14.30;84.70
39613;BME280;25303;48.896;13.342;2022-10-16T07:57:37;93206.34;;;14.39;84.25
39613;BME280;25303;48.896;13.342;2022-10-16T08:00:20;93209.22;;;14.44;84.30
39613;BME280;25303;48.896;13.342;2022-10-16T08:03:04;93209.78;;;14.54;84.42
39613;BME280;25303;48.896;13.342;2022-10-16T08:05:47;93214.75;;;14.64;84.65
39613;BME280;25303;48.896;13.342;2022-10-16T08:08:30;93219.28;;;14.70;84.24
39613;BME280;25303;48.896;13.342;2022-10-16T08:11:13;93220.72;;;14.73;83.81
39613;BME280;25303;48.896;13.342;2022-10-16T08:13:57;93219.94;;;14.72;83.88
39613;BME280;25303;48.896;13.342;2022-10-16T08:16:39;93233.03;;;14.71;83.47
39613;BME280;25303;48.896;13.342;2022-10-16T08:19:24;93231.59;;;14.68;83.19
39613;BME280;25303;48.896;13.342;2022-10-16T08:22:07;93240.47;;;14.66;83.11
39613;BME280;25303;48.896;13.342;2022-10-16T08:24:50;93243.44;;;14.63;83.09
39613;BME280;25303;48.896;13.342;2022-10-16T08:27:33;93251.22;;;14.63;83.49
39613;BME280;25303;48.896;13.342;2022-10-16T08:30:17;93249.22;;;14.65;83.53
39613;BME280;25303;48.896;13.342;2022-10-16T08:33:00;93249.88;;;14.67;83.64
39613;BME280;25303;48.896;13.342;2022-10-16T08:35:50;93255.56;;;14.70;83.55
39613;BME280;25303;48.896;13.342;2022-10-16T08:38:34;93254.22;;;14.74;83.70
39613;BME280;25303;48.896;13.342;2022-10-16T08:44:47;93247.19;;;14.83;83.85
39613;BME280;25303;48.896;13.342;2022-10-16T08:47:48;93251.72;;;14.89;84.20
39613;BME280;25303;48.896;13.342;2022-10-16T08:50:33;93251.81;;;14.96;84.04
39613;BME280;25303;48.896;13.342;2022-10-16T08:53:24;93254.38;;;15.04;84.31
39613;BME280;25303;48.896;13.342;2022-10-16T08:56:08;93258.69;;;15.12;84.22
39613;BME280;25303;48.896;13.342;2022-10-16T08:58:52;93263.09;;;15.27;84.19
39613;BME280;25303;48.896;13.342;2022-10-16T09:01:45;93267.44;;;15.49;84.70
39613;BME280;25303;48.896;13.342;2022-10-16T09:04:46;93263.44;;;15.77;85.22
39613;BME280;25303;48.896;13.342;2022-10-16T09:07:43;93264.66;;;16.04;84.45
39613;BME280;25303;48.896;13.342;2022-10-16T09:10:39;93267.13;;;16.28;83.97
39613;BME280;25303;48.896;13.342;2022-10-16T09:13:28;93266.38;;;16.49;83.57
39613;BME280;25303;48.896;13.342;2022-10-16T09:16:17;93274.22;;;16.70;82.58
39613;BME280;25303;48.896;13.342;2022-10-16T09:19:09;93279.25;;;16.94;82.38
39613;BME280;25303;48.896;13.342;2022-10-16T09:21:55;93283.63;;;17.08;80.23
39613;BME280;25303;48.896;13.342;2022-10-16T09:24:39;93290.94;;;17.20;79.49
39613;BME280;25303;48.896;13.342;2022-10-16T09:27:23;93283.25;;;17.33;78.21
39613;BME280;25303;48.896;13.342;2022-10-16T09:30:10;93290.22;;;17.54;76.62
39613;BME280;25303;48.896;13.342;2022-10-16T09:32:54;93287.03;;;17.81;78.29
39613;BME280;25303;48.896;13.342;2022-10-16T09:35:42;93297.84;;;18.06;77.40
39613;BME280;25303;48.896;13.342;2022-10-16T09:38:27;93294.34;;;18.27;75.90
39613;BME280;25303;48.896;13.342;2022-10-16T09:41:16;93295.63;;;18.45;76.31
39613;BME280;25303;48.896;13.342;2022-10-16T09:44:03;93295.53;;;18.73;75.69
39613;BME280;25303;48.896;13.342;2022-10-16T09:46:48;93289.03;;;19.04;75.58
39613;BME280;25303;48.896;13.342;2022-10-16T09:49:31;93296.09;;;19.17;73.87
39613;BME280;25303;48.896;13.342;2022-10-16T09:52:15;93292.88;;;19.42;74.35
39613;BME280;25303;48.896;13.342;2022-10-16T09:54:59;93301.94;;;19.66;73.70
39613;BME280;25303;48.896;13.342;2022-10-16T09:57:48;93299.13;;;19.81;70.67
39613;BME280;25303;48.896;13.342;2022-10-16T10:00:32;93294.31;;;19.92;71.65
39613;BME280;25303;48.896;13.342;2022-10-16T10:03:30;93299.50;;;19.85;69.91
39613;BME280;25303;48.896;13.342;2022-10-16T10:06:22;93301.97;;;19.93;70.75
39613;BME280;25303;48.896;13.342;2022-10-16T10:09:16;93298.53;;;19.99;70.31
39613;BME280;25303;48.896;13.342;2022-10-16T10:12:00;93295.91;;;19.99;68.46
39613;BME280;25303;48.896;13.342;2022-10-16T10:14:51;93292.28;;;20.00;68.17
39613;BME280;25303;48.896;13.342;2022-10-16T10:17:47;93300.50;;;20.11;67.33
39613;BME280;25303;48.896;13.342;2022-10-16T10:20:36;93299.88;;;20.22;67.37
39613;BME280;25303;48.896;13.342;2022-10-16T10:23:22;93304.72;;;20.05;66.12
39613;BME280;25303;48.896;13.342;2022-10-16T10:26:07;93301.09;;;20.19;65.25
39613;BME280;25303;48.896;13.342;2022-10-16T10:29:00;93294.84;;;20.27;65.35
39613;BME280;25303;48.896;13.342;2022-10-16T10:31:51;93294.41;;;20.37;64.30
39613;BME280;25303;48.896;13.342;2022-10-16T10:35:00;93289.00;;;20.39;62.72
39613;BME280;25303;48.896;13.342;2022-10-16T10:37:58;93287.00;;;20.34;62.91
39613;BME280;25303;48.896;13.342;2022-10-16T10:40:50;93285.53;;;20.52;63.85
39613;BME280;25303;48.896;13.342;2022-10-16T10:43:43;93287.13;;;20.53;62.33
39613;BME280;25303;48.896;13.342;2022-10-16T10:46:34;93292.47;;;20.71;62.97
39613;BME280;25303;48.896;13.342;2022-10-16T10:49:32;93284.25;;;20.68;61.32
39613;BME280;25303;48.896;13.342;2022-10-16T10:52:34;93290.06;;;20.70;61.01
39613;BME280;25303;48.896;13.342;2022-10-16T10:55:24;93283.38;;;20.87;61.69
39613;BME280;25303;48.896;13.342;2022-10-16T10:58:29;93288.41;;;20.89;60.22
39613;BME280;25303;48.896;13.342;2022-10-16T11:01:24;93287.16;;;20.98;60.40
39613;BME280;25303;48.896;13.342;2022-10-16T11:04:23;93295.16;;;21.03;60.38
39613;BME280;25303;48.896;13.342;2022-10-16T11:07:15;93295.56;;;21.07;59.54
39613;BME280;25303;48.896;13.342;2022-10-16T11:10:11;93291.50;;;21.11;60.51
39613;BME280;25303;48.896;13.342;2022-10-16T11:13:10;93287.63;;;21.20;60.30
39613;BME280;25303;48.896;13.342;2022-10-16T11:16:00;93291.66;;;21.48;61.22
39613;BME280;25303;48.896;13.342;2022-10-16T11:18:50;93293.00;;;21.64;58.41
39613;BME280;25303;48.896;13.342;2022-10-16T11:21:41;93291.88;;;21.79;59.77
39613;BME280;25303;48.896;13.342;2022-10-16T11:24:36;93287.41;;;21.79;58.18
39613;BME280;25303;48.896;13.342;2022-10-16T11:27:30;93286.19;;;21.82;57.85
39613;BME280;25303;48.896;13.342;2022-10-16T11:30:20;93295.56;;;21.71;57.20
39613;BME280;25303;48.896;13.342;2022-10-16T11:33:18;93296.78;;;21.68;56.12
39613;BME280;25303;48.896;13.342;2022-10-16T11:36:08;93291.06;;;21.78;56.33
39613;BME280;25303;48.896;13.342;2022-10-16T11:38:58;93296.75;;;21.94;56.91
39613;BME280;25303;48.896;13.342;2022-10-16T11:41:45;93295.44;;;21.84;54.42
39613;BME280;25303;48.896;13.342;2022-10-16T11:44:45;93297.84;;;21.61;52.80
39613;BME280;25303;48.896;13.342;2022-10-16T11:47:34;93300.09;;;21.82;55.79
39613;BME280;25303;48.896;13.342;2022-10-16T11:50:40;93294.03;;;22.07;56.49
39613;BME280;25303;48.896;13.342;2022-10-16T11:53:38;93293.91;;;22.21;54.13
39613;BME280;25303;48.896;13.342;2022-10-16T11:56:24;93295.28;;;22.23;54.63
39613;BME280;25303;48.896;13.342;2022-10-16T11:59:13;93277.41;;;21.95;53.05
39613;BME280;25303;48.896;13.342;2022-10-16T12:02:19;93279.34;;;21.81;52.55
39613;BME280;25303;48.896;13.342;2022-10-16T12:05:22;93284.84;;;21.98;53.66
39613;BME280;25303;48.896;13.342;2022-10-16T12:08:10;93281.16;;;22.24;54.69
39613;BME280;25303;48.896;13.342;2022-10-16T12:11:06;93276.25;;;22.28;53.73
39613;BME280;25303;48.896;13.342;2022-10-16T12:13:50;93278.75;;;22.41;54.64
39613;BME280;25303;48.896;13.342;2022-10-16T12:16:33;93272.06;;;22.45;54.08
39613;BME280;25303;48.896;13.342;2022-10-16T12:19:18;93269.28;;;22.59;54.60
39613;BME280;25303;48.896;13.342;2022-10-16T12:22:02;93268.47;;;22.77;54.45
39613;BME280;25303;48.896;13.342;2022-10-16T12:24:51;93264.50;;;22.86;52.97
39613;BME280;25303;48.896;13.342;2022-10-16T12:27:34;93264.25;;;22.76;52.70
39613;BME280;25303;48.896;13.342;2022-10-16T12:30:22;93275.19;;;22.73;52.66
39613;BME280;25303;48.896;13.342;2022-10-16T12:33:19;93275.75;;;22.75;51.21
39613;BME280;25303;48.896;13.342;2022-10-16T12:36:07;93278.97;;;22.77;51.57
39613;BME280;25303;48.896;13.342;2022-10-16T12:38:55;93277.66;;;22.68;51.68
39613;BME280;25303;48.896;13.342;2022-10-16T12:41:38;93283.88;;;22.73;52.68
39613;BME280;25303;48.896;13.342;2022-10-16T12:44:23;93289.28;;;22.90;52.93
39613;BME280;25303;48.896;13.342;2022-10-16T12:47:20;93286.19;;;22.82;51.55
39613;BME280;25303;48.896;13.342;2022-10-16T12:50:22;93288.63;;;22.65;51.71
39613;BME280;25303;48.896;13.342;2022-10-16T12:53:19;93290.81;;;22.49;51.55
39613;BME280;25303;48.896;13.342;2022-10-16T12:56:08;93289.84;;;22.62;52.25
39613;BME280;25303;48.896;13.342;2022-10-16T12:59:03;93295.31;;;22.79;52.05
39613;BME280;25303;48.896;13.342;2022-10-16T13:02:14;93297.94;;;22.79;51.57
39613;BME280;25303;48.896;13.342;2022-10-16T13:05:12;93301.63;;;22.90;51.45
39613;BME280;25303;48.896;13.342;2022-10-16T13:08:12;93301.75;;;22.95;51.08
39613;BME280;25303;48.896;13.342;2022-10-16T13:11:08;93299.63;;;23.04;51.36
39613;BME280;25303;48.896;13.342;2022-10-16T13:14:05;93305.81;;;23.10;50.96
39613;BME280;25303;48.896;13.342;2022-10-16T13:17:00;93307.28;;;23.05;50.58
39613;BME280;25303;48.896;13.342;2022-10-16T13:19:48;93314.53;;;22.91;51.44
39613;BME280;25303;48.896;13.342;2022-10-16T13:22:39;93309.13;;;22.86;51.89
39613;BME280;25303;48.896;13.342;2022-10-16T13:25:32;93305.22;;;22.77;52.00
39613;BME280;25303;48.896;13.342;2022-10-16T13:28:22;93307.41;;;22.61;52.36
39613;BME280;25303;48.896;13.342;2022-10-16T13:31:14;93311.06;;;22.60;52.81
39613;BME280;25303;48.896;13.342;2022-10-16T13:33:59;93310.25;;;22.60;52.77
39613;BME280;25303;48.896;13.342;2022-10-16T13:36:45;93309.31;;;22.54;52.90
39613;BME280;25303;48.896;13.342;2022-10-16T13:39:29;93312.00;;;22.48;52.77
39613;BME280;25303;48.896;13.342;2022-10-16T13:42:22;93317.72;;;22.38;52.94
39613;BME280;25303;48.896;13.342;2022-10-16T13:45:18;93311.16;;;22.28;53.44
39613;BME280;25303;48.896;13.342;2022-10-16T13:48:03;93311.75;;;22.30;53.50
39613;BME280;25303;48.896;13.342;2022-10-16T13:50:46;93309.50;;;22.34;53.78
39613;BME280;25303;48.896;13.342;2022-10-16T13:53:30;93318.81;;;22.30;53.34
39613;BME280;25303;48.896;13.342;2022-10-16T13:56:16;93316.63;;;22.27;53.88
39613;BME280;25303;48.896;13.342;2022-10-16T13:59:00;93319.53;;;22.19;53.86
39613;BME280;25303;48.896;13.342;2022-10-16T14:01:44;93318.00;;;22.11;53.63
39613;BME280;25303;48.896;13.342;2022-10-16T14:04:31;93321.09;;;22.01;53.79
39613;BME280;25303;48.896;13.342;2022-10-16T14:07:20;93322.84;;;21.89;54.24
39613;BME280;25303;48.896;13.342;2022-10-16T14:10:07;93319.63;;;21.87;54.23
39613;BME280;25303;48.896;13.342;2022-10-16T14:13:04;93326.91;;;21.84;54.19
39613;BME280;25303;48.896;13.342;2022-10-16T14:15:49;93323.09;;;21.80;54.26
39613;BME280;25303;48.896;13.342;2022-10-16T14:18:37;93334.50;;;21.67;54.48
39613;BME280;25303;48.896;13.342;2022-10-16T14:21:21;93339.75;;;21.61;54.55
39613;BME280;25303;48.896;13.342;2022-10-16T14:24:10;93325.28;;;21.51;54.79
39613;BME280;25303;48.896;13.342;2022-10-16T14:26:53;93329.19;;;21.42;54.97
39613;BME280;25303;48.896;13.342;2022-10-16T14:29:37;93333.47;;;21.30;54.63
39613;BME280;25303;48.896;13.342;2022-10-16T14:32:23;93330.31;;;21.21;54.72
39613;BME280;25303;48.896;13.342;2022-10-16T14:35:22;93330.34;;;21.14;55.35
39613;BME280;25303;48.896;13.342;2022-10-16T14:38:15;93334.06;;;21.00;55.37
39613;BME280;25303;48.896;13.342;2022-10-16T14:41:01;93333.09;;;20.87;55.38